createdAt,value
2022-08-09T00:00:06.498Z,1.90
2022-08-09T00:01:10.308Z,2.10
2022-08-09T00:02:06.890Z,2.20
2022-08-09T00:03:10.999Z,2.10
2022-08-09T00:04:33.788Z,2.40
2022-08-09T00:06:18.497Z,2.10
2022-08-09T00:06:18.878Z,2.00
2022-08-09T00:07:10.832Z,2.00
2022-08-09T00:08:10.092Z,2.20
2022-08-09T00:09:07.912Z,2.10
2022-08-09T00:10:08.184Z,2.10
2022-08-09T00:11:24.572Z,2.60
2022-08-09T00:12:22.845Z,2.20
2022-08-09T00:13:16.779Z,2.30
2022-08-09T00:14:10.239Z,2.60
2022-08-09T00:15:14.645Z,2.20
2022-08-09T00:16:12.915Z,2.40
2022-08-09T00:17:09.975Z,2.10
2022-08-09T00:18:12.511Z,2.20
2022-08-09T00:19:10.657Z,2.00
2022-08-09T00:20:12.158Z,2.10
2022-08-09T00:21:11.139Z,2.30
2022-08-09T00:22:11.410Z,2.60
2022-08-09T00:23:55.409Z,2.20
2022-08-09T00:24:13.016Z,2.50
2022-08-09T00:25:12.657Z,2.60
2022-08-09T00:26:14.506Z,2.50
2022-08-09T00:27:12.859Z,2.40
2022-08-09T00:28:13.222Z,2.20
2022-08-09T00:29:39.505Z,2.00
2022-08-09T00:30:25.048Z,2.20
2022-08-09T00:31:57.590Z,2.10
2022-08-09T00:32:26.833Z,2.20
2022-08-09T00:33:15.571Z,2.30
2022-08-09T00:34:14.843Z,2.00
2022-08-09T00:35:15.112Z,2.50
2022-08-09T00:36:15.382Z,2.20
2022-08-09T00:37:15.662Z,2.20
2022-08-09T00:38:15.993Z,2.00
2022-08-09T00:40:09.263Z,2.60
2022-08-09T00:40:17.657Z,2.20
2022-08-09T00:44:10.713Z,2.10
2022-08-09T00:44:11.420Z,2.40
2022-08-09T00:44:16.200Z,2.30
2022-08-09T00:44:26.565Z,2.30
2022-08-09T00:45:20.250Z,2.10
2022-08-09T00:46:55.932Z,2.50
2022-08-09T00:47:19.816Z,2.10
2022-08-09T00:48:19.543Z,2.50
2022-08-09T00:49:20.611Z,2.30
2022-08-09T00:50:19.557Z,2.00
2022-08-09T00:51:19.770Z,2.50
2022-08-09T00:52:20.123Z,1.90
2022-08-09T00:53:24.249Z,2.30
2022-08-09T00:54:20.616Z,2.20
2022-08-09T00:55:54.264Z,2.30
2022-08-09T00:56:22.149Z,2.50
2022-08-09T00:57:33.589Z,2.10
2022-08-09T00:58:27.608Z,2.30
2022-08-09T00:59:40.624Z,2.10
2022-08-09T01:00:23.633Z,2.40
2022-08-09T01:01:22.538Z,2.40
2022-08-09T01:02:22.765Z,2.10
2022-08-09T01:03:23.121Z,2.30
2022-08-09T01:04:24.433Z,2.20
2022-08-09T01:05:51.820Z,2.60
2022-08-09T01:06:25.575Z,2.40
2022-08-09T01:07:38.158Z,2.40
2022-08-09T01:08:26.954Z,2.80
2022-08-09T01:09:24.764Z,2.50
2022-08-09T01:10:26.096Z,2.60
2022-08-09T01:11:25.435Z,2.60
2022-08-09T01:12:25.655Z,2.60
2022-08-09T01:13:31.123Z,2.60
2022-08-09T01:14:27.217Z,2.90
2022-08-09T01:15:26.526Z,2.40
2022-08-09T01:16:26.871Z,2.40
2022-08-09T01:17:30.456Z,2.20
2022-08-09T01:18:29.906Z,2.40
2022-08-09T01:19:40.250Z,2.20
2022-08-09T01:20:29.088Z,2.90
2022-08-09T01:21:28.420Z,2.60
2022-08-09T01:22:30.246Z,3.30
2022-08-09T01:24:02.358Z,2.90
2022-08-09T01:24:30.316Z,2.70
2022-08-09T01:25:29.622Z,2.60
2022-08-09T01:26:29.841Z,2.90
2022-08-09T01:27:30.154Z,2.90
2022-08-09T01:28:30.524Z,2.70
2022-08-09T01:29:48.560Z,2.70
2022-08-09T01:30:35.827Z,2.80
2022-08-09T01:32:31.528Z,2.90
2022-08-09T01:32:33.730Z,2.70
2022-08-09T01:33:31.818Z,2.60
2022-08-09T01:34:32.155Z,2.90
2022-08-09T01:35:38.442Z,3.40
2022-08-09T01:36:33.807Z,2.60
2022-08-09T01:38:05.871Z,2.50
2022-08-09T01:38:34.368Z,3.00
2022-08-09T01:39:33.724Z,2.80
2022-08-09T01:40:34.029Z,2.70
2022-08-09T01:41:34.237Z,2.80
2022-08-09T01:42:34.569Z,2.80
2022-08-09T01:43:50.800Z,2.80
2022-08-09T01:44:36.189Z,3.00
2022-08-09T01:45:35.605Z,2.90
2022-08-09T01:46:36.789Z,3.00
2022-08-09T01:47:44.641Z,3.00
2022-08-09T01:48:38.310Z,2.80
2022-08-09T01:49:39.170Z,3.50
2022-08-09T01:50:41.958Z,3.20
2022-08-09T01:51:38.177Z,2.70
2022-08-09T01:52:38.523Z,2.60
2022-08-09T01:53:41.494Z,3.00
2022-08-09T01:54:38.053Z,3.10
2022-08-09T01:55:38.757Z,3.10
2022-08-09T01:56:38.686Z,2.50
2022-08-09T01:57:40.361Z,2.90
2022-08-09T01:58:40.302Z,2.60
2022-08-09T01:59:50.760Z,3.20
2022-08-09T02:00:40.892Z,3.50
2022-08-09T02:01:59.791Z,2.90
2022-08-09T02:02:41.475Z,3.20
2022-08-09T02:03:40.809Z,3.20
2022-08-09T02:04:45.616Z,3.30
2022-08-09T02:06:06.617Z,3.10
2022-08-09T02:06:45.558Z,3.10
2022-08-09T02:08:39.293Z,2.90
2022-08-09T02:08:57.990Z,2.90
2022-08-09T02:09:43.648Z,3.00
2022-08-09T02:10:42.992Z,3.40
2022-08-09T02:11:44.253Z,3.10
2022-08-09T02:12:43.528Z,2.80
2022-08-09T02:13:43.861Z,3.00
2022-08-09T02:14:45.278Z,3.30
2022-08-09T02:15:49.276Z,3.50
2022-08-09T02:16:53.253Z,2.80
2022-08-09T02:18:01.102Z,3.10
2022-08-09T02:18:47.819Z,3.00
2022-08-09T02:19:45.768Z,3.40
2022-08-09T02:20:45.852Z,3.60
2022-08-09T02:21:46.103Z,2.80
2022-08-09T02:22:46.632Z,3.10
2022-08-09T02:23:46.675Z,2.90
2022-08-09T02:24:51.815Z,3.10
2022-08-09T02:25:52.605Z,3.10
2022-08-09T02:26:48.585Z,3.10
2022-08-09T02:28:00.624Z,3.30
2022-08-09T02:28:49.204Z,2.90
2022-08-09T02:29:48.561Z,3.20
2022-08-09T02:30:48.766Z,3.10
2022-08-09T02:31:49.035Z,3.20
2022-08-09T02:32:49.315Z,3.10
2022-08-09T02:34:06.650Z,3.00
2022-08-09T02:34:51.830Z,2.90
2022-08-09T02:36:03.073Z,2.80
2022-08-09T02:36:52.540Z,3.00
2022-08-09T02:37:50.746Z,2.80
2022-08-09T02:38:51.070Z,3.40
2022-08-09T02:39:55.289Z,3.40
2022-08-09T02:40:52.777Z,3.10
2022-08-09T02:41:52.071Z,3.10
2022-08-09T02:42:52.368Z,3.10
2022-08-09T02:43:53.967Z,3.50
2022-08-09T02:44:52.872Z,3.10
2022-08-09T02:45:53.181Z,3.40
2022-08-09T02:46:53.512Z,3.40
2022-08-09T02:47:59.055Z,3.30
2022-08-09T02:48:55.162Z,3.50
2022-08-09T02:49:55.475Z,3.10
2022-08-09T02:50:56.536Z,3.10
2022-08-09T02:51:55.053Z,3.20
2022-08-09T02:52:55.643Z,3.20
2022-08-09T02:53:59.713Z,3.40
2022-08-09T02:54:57.466Z,3.20
2022-08-09T02:55:58.260Z,3.70
2022-08-09T02:57:14.005Z,3.20
2022-08-09T02:58:00.733Z,3.00
2022-08-09T02:58:58.233Z,3.10
2022-08-09T03:00:20.766Z,3.50
2022-08-09T03:00:59.130Z,3.60
2022-08-09T03:02:05.642Z,2.90
2022-08-09T03:03:00.342Z,3.20
2022-08-09T03:04:17.980Z,3.60
2022-08-09T03:05:00.002Z,2.90
2022-08-09T03:05:59.312Z,3.20
2022-08-09T03:07:14.011Z,3.00
2022-08-09T03:08:00.879Z,3.00
2022-08-09T03:09:00.121Z,3.50
2022-08-09T03:10:00.699Z,3.40
2022-08-09T03:11:00.682Z,3.10
2022-08-09T03:12:10.474Z,3.20
2022-08-09T03:13:02.372Z,3.20
2022-08-09T03:14:02.666Z,2.80
2022-08-09T03:15:01.973Z,3.10
2022-08-09T03:16:06.139Z,3.40
2022-08-09T03:17:05.451Z,3.50
2022-08-09T03:18:02.934Z,3.20
2022-08-09T03:19:04.193Z,3.60
2022-08-09T03:20:11.124Z,3.50
2022-08-09T03:21:04.705Z,3.60
2022-08-09T03:22:03.999Z,3.10
2022-08-09T03:23:14.616Z,3.50
2022-08-09T03:24:05.471Z,3.30
2022-08-09T03:25:13.621Z,3.30
2022-08-09T03:26:06.005Z,3.50
2022-08-09T03:27:05.358Z,3.50
2022-08-09T03:28:11.422Z,3.40
2022-08-09T03:29:13.436Z,3.20
2022-08-09T03:30:07.613Z,3.70
2022-08-09T03:31:21.040Z,3.00
2022-08-09T03:32:08.399Z,2.90
2022-08-09T03:33:17.255Z,3.50
2022-08-09T03:34:08.333Z,3.00
2022-08-09T03:35:24.224Z,3.40
2022-08-09T03:36:16.572Z,3.10
2022-08-09T03:37:10.706Z,3.20
2022-08-09T03:38:09.443Z,3.10
2022-08-09T03:39:09.733Z,3.40
2022-08-09T03:40:09.090Z,3.00
2022-08-09T03:41:09.399Z,3.00
2022-08-09T03:42:09.653Z,3.60
2022-08-09T03:43:09.906Z,3.10
2022-08-09T03:44:10.204Z,3.30
2022-08-09T03:45:10.468Z,3.10
2022-08-09T03:46:20.651Z,3.40
2022-08-09T03:47:12.056Z,3.00
2022-08-09T03:48:11.394Z,3.50
2022-08-09T03:49:12.616Z,3.20
2022-08-09T03:50:12.881Z,3.50
2022-08-09T03:51:54.082Z,2.90
2022-08-09T03:52:13.358Z,2.80
2022-08-09T03:53:12.667Z,3.20
2022-08-09T03:54:12.986Z,2.60
2022-08-09T03:55:14.473Z,3.10
2022-08-09T03:56:13.495Z,3.10
2022-08-09T03:57:19.936Z,2.90
2022-08-09T03:58:16.474Z,3.20
2022-08-09T03:59:20.922Z,3.50
2022-08-09T04:00:15.691Z,2.70
2022-08-09T04:01:14.997Z,3.20
2022-08-09T04:02:15.232Z,3.10
2022-08-09T04:03:24.995Z,3.10
2022-08-09T04:04:16.821Z,3.00
2022-08-09T04:05:26.950Z,2.50
2022-08-09T04:06:17.463Z,2.70
2022-08-09T04:07:16.774Z,3.30
2022-08-09T04:08:17.025Z,2.90
2022-08-09T04:09:47.429Z,3.40
2022-08-09T04:10:20.764Z,2.90
2022-08-09T04:11:18.785Z,3.10
2022-08-09T04:12:30.911Z,2.90
2022-08-09T04:13:21.637Z,3.20
2022-08-09T04:14:53.892Z,2.70
2022-08-09T04:15:52.263Z,2.50
2022-08-09T04:16:21.647Z,2.90
2022-08-09T04:17:19.448Z,3.00
2022-08-09T04:18:21.503Z,2.60
2022-08-09T04:19:42.820Z,2.90
2022-08-09T04:20:21.250Z,2.70
2022-08-09T04:21:20.505Z,3.10
2022-08-09T04:22:20.858Z,3.00
2022-08-09T04:23:24.671Z,2.60
2022-08-09T04:24:21.551Z,2.60
2022-08-09T04:25:22.950Z,2.70
2022-08-09T04:26:23.459Z,2.60
2022-08-09T04:27:22.549Z,2.70
2022-08-09T04:28:33.959Z,2.70
2022-08-09T04:29:24.091Z,2.80
2022-08-09T04:30:26.102Z,2.50
2022-08-09T04:31:26.430Z,3.10
2022-08-09T04:32:31.405Z,2.40
2022-08-09T04:33:28.732Z,3.10
2022-08-09T04:34:31.655Z,2.90
2022-08-09T04:35:25.863Z,2.60
2022-08-09T04:36:25.372Z,2.40
2022-08-09T04:37:45.727Z,2.50
2022-08-09T04:38:26.759Z,2.50
2022-08-09T04:39:26.165Z,2.40
2022-08-09T04:40:36.193Z,2.50
2022-08-09T04:41:32.873Z,2.20
2022-08-09T04:42:27.823Z,2.40
2022-08-09T04:43:27.145Z,2.40
2022-08-09T04:44:28.599Z,2.60
2022-08-09T04:45:30.522Z,2.70
2022-08-09T04:46:57.786Z,2.80
2022-08-09T04:47:45.160Z,2.60
2022-08-09T04:48:33.463Z,2.70
2022-08-09T04:49:40.905Z,2.40
2022-08-09T04:50:31.848Z,2.50
2022-08-09T04:51:29.459Z,2.40
2022-08-09T04:52:29.713Z,2.30
2022-08-09T04:53:31.439Z,2.50
2022-08-09T04:54:30.289Z,2.60
2022-08-09T04:55:38.190Z,2.80
2022-08-09T04:56:31.810Z,2.60
2022-08-09T04:57:58.367Z,2.80
2022-08-09T04:58:32.968Z,2.40
2022-08-09T04:59:31.914Z,2.80
2022-08-09T05:00:34.409Z,2.70
2022-08-09T05:01:32.563Z,2.20
2022-08-09T05:02:32.720Z,2.10
2022-08-09T05:03:42.823Z,2.70
2022-08-09T05:04:34.153Z,2.40
2022-08-09T05:05:52.610Z,2.50
2022-08-09T05:06:35.917Z,2.70
2022-08-09T05:07:33.866Z,2.30
2022-08-09T05:08:34.133Z,2.50
2022-08-09T05:09:45.387Z,2.20
2022-08-09T05:10:36.835Z,2.60
2022-08-09T05:11:35.601Z,2.60
2022-08-09T05:12:35.377Z,2.60
2022-08-09T05:13:38.762Z,2.60
2022-08-09T05:14:35.756Z,2.30
2022-08-09T05:15:39.079Z,2.80
2022-08-09T05:16:43.826Z,2.70
2022-08-09T05:18:39.659Z,2.70
2022-08-09T05:18:57.251Z,2.80
2022-08-09T05:19:46.016Z,2.60
2022-08-09T05:20:38.379Z,3.20
2022-08-09T05:21:47.036Z,3.30
2022-08-09T05:23:53.844Z,2.90
2022-08-09T05:23:55.349Z,3.30
2022-08-09T05:24:39.522Z,3.40
2022-08-09T05:25:38.853Z,3.30
2022-08-09T05:26:46.171Z,3.60
2022-08-09T05:27:46.296Z,3.60
2022-08-09T05:28:40.697Z,3.40
2022-08-09T05:29:39.993Z,3.60
2022-08-09T05:30:41.701Z,3.70
2022-08-09T05:31:47.452Z,3.20
2022-08-09T05:32:42.046Z,3.80
2022-08-09T05:33:42.527Z,3.30
2022-08-09T05:34:42.952Z,3.90
2022-08-09T05:35:46.914Z,3.60
2022-08-09T05:36:43.074Z,3.50
2022-08-09T05:37:47.790Z,3.50
2022-08-09T05:38:43.525Z,3.40
2022-08-09T05:39:44.541Z,3.60
2022-08-09T05:40:45.568Z,3.70
2022-08-09T05:41:44.267Z,3.40
2022-08-09T05:42:43.556Z,3.20
2022-08-09T05:43:45.107Z,3.40
2022-08-09T05:44:45.089Z,3.20
2022-08-09T05:45:56.632Z,2.70
2022-08-09T05:46:45.638Z,3.20
2022-08-09T05:47:51.799Z,3.20
2022-08-09T05:48:48.626Z,2.90
2022-08-09T05:50:30.977Z,3.60
2022-08-09T05:50:51.146Z,3.00
2022-08-09T05:51:47.097Z,3.30
2022-08-09T05:52:53.307Z,3.60
2022-08-09T05:53:56.890Z,3.00
2022-08-09T05:54:49.139Z,2.90
2022-08-09T05:55:47.405Z,2.70
2022-08-09T05:56:55.312Z,2.80
2022-08-09T05:57:55.697Z,3.10
2022-08-09T05:58:49.398Z,3.20
2022-08-09T05:59:48.621Z,2.80
2022-08-09T06:00:48.946Z,2.70
2022-08-09T06:01:49.258Z,3.00
2022-08-09T06:02:49.589Z,2.60
2022-08-09T06:03:58.125Z,2.70
2022-08-09T06:04:51.278Z,2.40
2022-08-09T06:06:04.473Z,2.90
2022-08-09T06:06:51.893Z,3.10
2022-08-09T06:08:05.499Z,3.00
2022-08-09T06:08:52.524Z,3.30
2022-08-09T06:09:55.079Z,3.00
2022-08-09T06:10:52.927Z,3.10
2022-08-09T06:11:57.470Z,3.30
2022-08-09T06:12:59.338Z,3.30
2022-08-09T06:13:54.654Z,2.70
2022-08-09T06:14:53.026Z,3.40
2022-08-09T06:15:53.332Z,3.10
2022-08-09T06:16:53.604Z,2.70
2022-08-09T06:17:53.921Z,2.50
2022-08-09T06:18:54.195Z,2.60
2022-08-09T06:19:54.468Z,3.20
2022-08-09T06:20:57.797Z,2.40
2022-08-09T06:21:58.871Z,2.70
2022-08-09T06:22:55.309Z,2.70
2022-08-09T06:24:01.190Z,2.60
2022-08-09T06:24:56.868Z,2.60
2022-08-09T06:25:56.067Z,2.60
2022-08-09T06:26:56.298Z,2.10
2022-08-09T06:27:56.586Z,2.50
2022-08-09T06:28:59.388Z,2.30
2022-08-09T06:30:04.634Z,2.00
2022-08-09T06:30:58.446Z,2.30
2022-08-09T06:32:53.535Z,2.20
2022-08-09T06:33:30.037Z,2.40
2022-08-09T06:33:59.447Z,1.90
2022-08-09T06:34:58.653Z,2.40
2022-08-09T06:35:58.925Z,1.90
2022-08-09T06:37:00.033Z,2.00
2022-08-09T06:38:05.850Z,1.90
2022-08-09T06:39:02.457Z,2.20
2022-08-09T06:40:03.536Z,1.90
2022-08-09T06:41:01.347Z,2.30
2022-08-09T06:42:08.840Z,1.80
2022-08-09T06:43:02.057Z,1.70
2022-08-09T06:44:01.218Z,1.80
2022-08-09T06:45:09.209Z,1.40
2022-08-09T06:46:07.169Z,1.60
2022-08-09T06:47:02.982Z,1.80
2022-08-09T06:48:02.309Z,1.30
2022-08-09T06:49:02.572Z,2.10
2022-08-09T06:50:13.268Z,1.90
2022-08-09T06:51:04.413Z,2.20
2022-08-09T06:52:03.437Z,1.70
2022-08-09T06:53:03.882Z,1.50
2022-08-09T06:54:05.861Z,1.40
2022-08-09T06:55:10.197Z,1.90
2022-08-09T06:56:05.457Z,1.70
2022-08-09T06:57:04.753Z,1.70
2022-08-09T06:58:05.053Z,1.60
2022-08-09T07:00:49.220Z,2.00
2022-08-09T07:00:50.918Z,1.60
2022-08-09T07:01:07.987Z,1.80
2022-08-09T07:02:06.101Z,1.70
2022-08-09T07:03:06.340Z,1.70
2022-08-09T07:04:06.569Z,2.10
2022-08-09T07:05:06.888Z,1.90
2022-08-09T07:06:07.208Z,2.20
2022-08-09T07:07:07.546Z,1.80
2022-08-09T07:08:07.850Z,2.10
2022-08-09T07:09:08.111Z,2.00
2022-08-09T07:10:22.421Z,2.10
2022-08-09T07:11:12.373Z,1.80
2022-08-09T07:12:13.693Z,1.50
2022-08-09T07:13:27.300Z,1.70
2022-08-09T07:14:10.634Z,1.90
2022-08-09T07:16:36.738Z,1.60
2022-08-09T07:16:41.750Z,1.60
2022-08-09T07:17:11.484Z,2.00
2022-08-09T07:18:10.883Z,1.50
2022-08-09T07:19:11.095Z,1.50
2022-08-09T07:20:11.344Z,2.20
2022-08-09T07:21:11.754Z,1.60
2022-08-09T07:22:11.825Z,1.60
2022-08-09T07:23:18.874Z,1.80
2022-08-09T07:24:13.358Z,2.10
2022-08-09T07:25:12.706Z,1.70
2022-08-09T07:26:13.858Z,1.90
2022-08-09T07:27:33.039Z,1.90
2022-08-09T07:28:19.201Z,1.40
2022-08-09T07:29:14.888Z,1.50
2022-08-09T07:30:14.093Z,1.30
2022-08-09T07:31:14.373Z,1.30
2022-08-09T07:32:14.651Z,1.40
2022-08-09T07:33:16.424Z,1.30
2022-08-09T07:34:21.078Z,1.50
2022-08-09T07:35:16.556Z,1.30
2022-08-09T07:36:15.923Z,1.10
2022-08-09T07:37:16.180Z,1.20
2022-08-09T07:38:16.357Z,0.90
2022-08-09T07:39:20.473Z,1.00
2022-08-09T07:40:20.282Z,1.00
2022-08-09T07:41:18.318Z,1.20
2022-08-09T07:42:17.608Z,1.00
2022-08-09T07:43:17.885Z,1.00
2022-08-09T07:44:18.233Z,0.90
2022-08-09T07:45:23.720Z,1.00
2022-08-09T07:46:19.744Z,1.00
2022-08-09T07:47:19.055Z,0.90
2022-08-09T07:48:29.652Z,0.80
2022-08-09T07:49:20.725Z,1.00
2022-08-09T07:50:19.948Z,1.00
2022-08-09T07:52:05.974Z,0.80
2022-08-09T07:52:21.438Z,0.80
2022-08-09T07:54:04.126Z,0.90
2022-08-09T07:54:28.123Z,0.90
2022-08-09T07:55:22.349Z,0.90
2022-08-09T07:56:26.517Z,1.30
2022-08-09T07:57:21.879Z,0.90
2022-08-09T07:58:26.211Z,0.90
2022-08-09T07:59:34.531Z,0.90
2022-08-09T08:00:35.801Z,0.80
2022-08-09T08:01:25.501Z,0.90
2022-08-09T08:02:24.539Z,0.60
2022-08-09T08:03:24.171Z,0.80
2022-08-09T08:04:25.477Z,1.10
2022-08-09T08:05:25.244Z,0.90
2022-08-09T08:06:31.851Z,0.90
2022-08-09T08:08:42.801Z,0.90
2022-08-09T08:09:02.323Z,1.40
2022-08-09T08:09:35.444Z,1.50
2022-08-09T08:10:27.254Z,1.10
2022-08-09T08:12:09.762Z,0.90
2022-08-09T08:12:34.406Z,1.10
2022-08-09T08:13:27.492Z,0.70
2022-08-09T08:14:27.739Z,1.20
2022-08-09T08:15:27.060Z,0.80
2022-08-09T08:16:29.549Z,0.90
2022-08-09T08:17:52.376Z,0.80
2022-08-09T08:18:28.910Z,0.80
2022-08-09T08:19:31.230Z,0.80
2022-08-09T08:20:32.749Z,0.90
2022-08-09T08:21:29.564Z,0.70
2022-08-09T08:22:29.121Z,0.60
2022-08-09T08:23:30.182Z,0.70
2022-08-09T08:24:35.425Z,0.80
2022-08-09T08:25:44.371Z,0.90
2022-08-09T08:26:54.781Z,0.80
2022-08-09T08:27:40.451Z,0.80
2022-08-09T08:28:33.141Z,0.90
2022-08-09T08:29:39.253Z,0.90
2022-08-09T08:30:32.397Z,0.80
2022-08-09T08:32:02.602Z,0.80
2022-08-09T08:32:32.939Z,0.90
2022-08-09T08:33:52.121Z,0.80
2022-08-09T08:34:34.712Z,0.80
2022-08-09T08:35:53.060Z,0.80
2022-08-09T08:36:34.218Z,1.10
2022-08-09T08:37:40.822Z,0.90
2022-08-09T08:38:34.798Z,0.80
2022-08-09T08:39:43.407Z,0.80
2022-08-09T08:40:35.392Z,0.70
2022-08-09T08:41:50.605Z,1.00
2022-08-09T08:42:36.086Z,0.70
2022-08-09T08:43:35.100Z,1.00
2022-08-09T08:44:36.094Z,0.80
2022-08-09T08:45:37.367Z,0.70
2022-08-09T08:46:59.401Z,0.60
2022-08-09T08:47:38.538Z,1.00
2022-08-09T08:48:37.572Z,1.10
2022-08-09T08:49:47.281Z,1.00
2022-08-09T08:50:38.137Z,1.10
2022-08-09T08:51:40.252Z,0.90
2022-08-09T08:52:59.370Z,0.90
2022-08-09T08:53:39.006Z,1.30
2022-08-09T08:54:39.255Z,1.10
2022-08-09T08:55:38.566Z,0.80
2022-08-09T08:56:38.807Z,0.80
2022-08-09T08:57:57.609Z,0.80
2022-08-09T08:58:44.403Z,1.00
2022-08-09T08:59:46.731Z,0.90
2022-08-09T09:00:41.001Z,0.80
2022-08-09T09:01:53.385Z,0.80
2022-08-09T09:02:41.696Z,0.80
2022-08-09T09:03:40.873Z,1.30
2022-08-09T09:04:47.868Z,0.60
2022-08-09T09:06:01.173Z,0.70
2022-08-09T09:06:42.643Z,0.90
2022-08-09T09:07:42.499Z,0.90
2022-08-09T09:08:42.720Z,0.90
2022-08-09T09:10:02.303Z,0.70
2022-08-09T09:10:43.867Z,1.00
2022-08-09T09:11:43.169Z,1.00
2022-08-09T09:12:43.928Z,1.20
2022-08-09T09:13:56.594Z,0.90
2022-08-09T09:14:45.008Z,0.80
2022-08-09T09:15:49.229Z,0.90
2022-08-09T09:16:45.638Z,0.70
2022-08-09T09:17:48.681Z,0.70
2022-08-09T09:18:53.611Z,0.70
2022-08-09T09:19:46.443Z,0.90
2022-08-09T09:20:45.663Z,1.20
2022-08-09T09:21:46.858Z,0.70
2022-08-09T09:22:46.213Z,0.70
2022-08-09T09:23:49.704Z,0.80
2022-08-09T09:24:47.734Z,0.90
2022-08-09T09:26:02.346Z,1.00
2022-08-09T09:26:48.258Z,0.70
2022-08-09T09:28:04.526Z,1.10
2022-08-09T09:29:04.177Z,0.80
2022-08-09T09:30:49.396Z,0.80
2022-08-09T09:32:03.544Z,1.00
2022-08-09T09:32:49.854Z,0.70
2022-08-09T09:33:49.167Z,0.80
2022-08-09T09:34:50.526Z,0.80
2022-08-09T09:35:53.100Z,0.80
2022-08-09T09:36:54.190Z,0.70
2022-08-09T09:37:50.410Z,1.10
2022-08-09T09:38:50.652Z,0.70
2022-08-09T09:39:55.574Z,0.90
2022-08-09T09:40:52.270Z,0.60
2022-08-09T09:41:51.444Z,0.70
2022-08-09T09:42:51.751Z,1.00
2022-08-09T09:44:10.577Z,0.70
2022-08-09T09:44:53.303Z,1.00
2022-08-09T09:46:54.663Z,0.70
2022-08-09T09:47:58.320Z,0.90
2022-08-09T09:48:54.414Z,0.60
2022-08-09T09:50:14.900Z,0.70
2022-08-09T09:50:54.945Z,1.00
2022-08-09T09:51:54.144Z,1.00
2022-08-09T09:52:56.399Z,1.20
2022-08-09T09:54:01.228Z,0.90
2022-08-09T09:54:56.087Z,1.20
2022-08-09T09:56:03.812Z,1.00
2022-08-09T09:58:02.951Z,1.10
2022-08-09T09:58:03.629Z,1.10
2022-08-09T09:58:57.221Z,0.70
2022-08-09T09:59:56.549Z,1.00
2022-08-09T10:00:58.556Z,1.00
2022-08-09T10:01:57.105Z,0.70
2022-08-09T10:02:57.366Z,0.70
2022-08-09T10:04:00.080Z,0.60
2022-08-09T10:04:57.874Z,0.60
2022-08-09T10:06:03.553Z,0.80
2022-08-09T10:07:03.657Z,0.80
2022-08-09T10:08:10.666Z,0.50
2022-08-09T10:08:59.963Z,0.90
2022-08-09T10:09:59.245Z,0.70
2022-08-09T10:10:59.543Z,0.90
2022-08-09T10:12:14.252Z,1.20
2022-08-09T10:13:01.084Z,0.60
2022-08-09T10:14:00.415Z,0.70
2022-08-09T10:15:00.719Z,0.50
2022-08-09T10:16:54.933Z,0.60
2022-08-09T10:17:21.733Z,0.80
2022-08-09T10:18:02.930Z,0.50
2022-08-09T10:19:01.897Z,0.70
2022-08-09T10:20:02.273Z,0.60
2022-08-09T10:21:02.571Z,0.70
2022-08-09T10:22:02.819Z,0.50
2022-08-09T10:23:03.119Z,0.50
2022-08-09T10:24:03.976Z,0.70
2022-08-09T10:25:11.158Z,0.80
2022-08-09T10:26:07.524Z,0.90
2022-08-09T10:27:10.135Z,0.80
2022-08-09T10:28:05.440Z,0.60
2022-08-09T10:29:23.296Z,0.70
2022-08-09T10:30:48.119Z,0.90
2022-08-09T10:33:08.111Z,0.80
2022-08-09T10:34:11.033Z,1.10
2022-08-09T10:35:07.806Z,0.60
2022-08-09T10:36:11.577Z,0.70
2022-08-09T10:37:09.835Z,0.70
2022-08-09T10:38:33.863Z,0.70
2022-08-09T10:39:15.635Z,0.80
2022-08-09T10:40:08.991Z,1.00
2022-08-09T10:41:08.785Z,0.60
2022-08-09T10:42:08.399Z,0.80
2022-08-09T10:43:08.988Z,0.60
2022-08-09T10:44:08.960Z,0.80
2022-08-09T10:45:11.819Z,0.80
2022-08-09T10:46:09.492Z,0.80
2022-08-09T10:48:10.186Z,0.90
2022-08-09T10:48:26.601Z,0.70
2022-08-09T10:49:11.280Z,0.80
2022-08-09T10:50:14.780Z,0.70
2022-08-09T10:51:10.882Z,0.70
2022-08-09T10:52:20.209Z,0.90
2022-08-09T10:54:41.419Z,0.50
2022-08-09T10:56:58.062Z,0.70
2022-08-09T10:57:59.927Z,0.70
2022-08-09T10:58:58.655Z,0.70
2022-08-09T11:00:01.564Z,0.50
2022-08-09T11:03:06.385Z,0.50
2022-08-09T11:03:14.173Z,0.60
2022-08-09T11:03:14.481Z,0.90
2022-08-09T11:04:03.948Z,0.70
2022-08-09T11:05:01.281Z,0.70
2022-08-09T11:06:00.975Z,0.60
2022-08-09T11:07:01.414Z,0.80
2022-08-09T11:08:02.728Z,0.70
2022-08-09T11:09:16.050Z,0.60
2022-08-09T11:10:02.754Z,0.80
2022-08-09T11:11:08.455Z,0.50
2022-08-09T11:12:05.049Z,0.60
2022-08-09T11:13:02.688Z,0.60
2022-08-09T11:14:02.969Z,0.80
2022-08-09T11:15:03.246Z,0.70
2022-08-09T11:16:04.759Z,0.60
2022-08-09T11:17:03.815Z,0.60
2022-08-09T11:18:04.204Z,0.70
2022-08-09T11:19:08.067Z,0.60
2022-08-09T11:20:10.481Z,0.40
2022-08-09T11:21:05.798Z,0.50
2022-08-09T11:22:24.331Z,0.60
2022-08-09T11:23:10.013Z,0.60
2022-08-09T11:24:05.612Z,0.50
2022-08-09T11:25:08.456Z,0.60
2022-08-09T11:26:06.234Z,0.60
2022-08-09T11:27:06.641Z,0.40
2022-08-09T11:28:30.698Z,0.50
2022-08-09T11:29:08.088Z,0.60
2022-08-09T11:30:32.778Z,0.70
2022-08-09T11:31:09.605Z,0.40
2022-08-09T11:32:07.884Z,0.40
2022-08-09T11:33:08.128Z,0.50
2022-08-09T11:34:08.430Z,0.50
2022-08-09T11:35:08.716Z,0.30
2022-08-09T11:36:08.979Z,0.40
2022-08-09T11:37:18.432Z,0.50
2022-08-09T11:38:10.610Z,0.30
2022-08-09T11:39:11.152Z,0.40
2022-08-09T11:40:10.152Z,0.50
2022-08-09T11:41:10.421Z,0.50
2022-08-09T11:42:14.793Z,0.40
2022-08-09T11:43:11.073Z,0.70
2022-08-09T11:44:11.372Z,0.40
2022-08-09T11:45:11.622Z,0.40
2022-08-09T11:46:11.946Z,0.30
2022-08-09T11:47:14.409Z,0.40
2022-08-09T11:48:19.411Z,0.50
2022-08-09T11:49:16.829Z,0.50
2022-08-09T11:50:55.019Z,0.40
2022-08-09T11:53:00.728Z,0.40
2022-08-09T11:53:02.584Z,0.50
2022-08-09T11:53:28.173Z,0.50
2022-08-09T11:54:15.476Z,0.70
2022-08-09T11:55:15.469Z,0.60
2022-08-09T11:56:19.512Z,0.40
2022-08-09T11:57:15.060Z,0.40
2022-08-09T11:58:15.358Z,0.50
2022-08-09T11:59:15.663Z,0.50
2022-08-09T12:00:17.955Z,0.60
2022-08-09T12:02:00.845Z,0.50
2022-08-09T12:02:37.193Z,0.60
2022-08-09T12:03:55.430Z,0.50
2022-08-09T12:04:20.805Z,0.50
2022-08-09T12:05:22.886Z,0.40
2022-08-09T12:06:18.625Z,0.50
2022-08-09T12:07:18.922Z,0.20
2022-08-09T12:08:19.856Z,0.50
2022-08-09T12:09:19.495Z,0.30
2022-08-09T12:10:38.082Z,0.50
2022-08-09T12:11:20.028Z,0.40
2022-08-09T12:12:20.282Z,0.70
2022-08-09T12:14:09.601Z,0.40
2022-08-09T12:14:37.017Z,0.60
2022-08-09T12:15:22.304Z,0.50
2022-08-09T12:16:37.455Z,0.60
2022-08-09T12:17:33.798Z,0.40
2022-08-09T12:18:29.775Z,0.60
2022-08-09T12:19:22.128Z,0.70
2022-08-09T12:20:22.670Z,0.90
2022-08-09T12:21:28.548Z,0.40
2022-08-09T12:22:23.001Z,0.60
2022-08-09T12:23:24.668Z,0.50
2022-08-09T12:24:24.029Z,0.60
2022-08-09T12:25:37.614Z,0.50
2022-08-09T12:26:26.443Z,0.50
2022-08-09T12:29:11.528Z,0.50
2022-08-09T12:29:15.034Z,0.50
2022-08-09T12:29:32.904Z,0.60
2022-08-09T12:30:35.598Z,0.50
2022-08-09T12:31:31.137Z,0.50
2022-08-09T12:32:25.974Z,0.80
2022-08-09T12:33:26.490Z,0.60
2022-08-09T12:34:26.400Z,0.70
2022-08-09T12:35:25.642Z,0.70
2022-08-09T12:36:31.265Z,0.60
2022-08-09T12:37:29.272Z,0.60
2022-08-09T12:38:37.603Z,0.50
2022-08-09T12:39:27.831Z,0.40
2022-08-09T12:40:27.154Z,0.50
2022-08-09T12:41:27.284Z,0.50
2022-08-09T12:42:27.546Z,1.00
2022-08-09T12:44:06.006Z,0.70
2022-08-09T12:44:29.085Z,0.60
2022-08-09T12:45:33.952Z,0.60
2022-08-09T12:46:29.617Z,0.70
2022-08-09T12:47:28.929Z,0.70
2022-08-09T12:48:33.394Z,0.40
2022-08-09T12:49:29.549Z,0.60
2022-08-09T12:50:29.919Z,0.40
2022-08-09T12:51:52.817Z,0.50
2022-08-09T12:52:42.837Z,0.60
2022-08-09T12:53:37.592Z,0.60
2022-08-09T12:54:32.069Z,0.70
2022-08-09T12:56:14.779Z,0.50
2022-08-09T12:56:36.996Z,0.80
2022-08-09T12:57:32.883Z,0.40
2022-08-09T12:58:33.141Z,0.60
2022-08-09T12:59:57.440Z,0.80
2022-08-09T13:00:33.804Z,0.70
2022-08-09T13:01:33.201Z,0.70
2022-08-09T13:02:33.576Z,0.60
2022-08-09T13:03:53.528Z,0.40
2022-08-09T13:04:38.085Z,0.50
2022-08-09T13:05:52.511Z,0.40
2022-08-09T13:06:35.870Z,0.60
2022-08-09T13:07:51.537Z,0.50
2022-08-09T13:08:40.685Z,0.60
2022-08-09T13:09:38.164Z,0.40
2022-08-09T13:10:35.975Z,0.40
2022-08-09T13:11:39.380Z,0.40
2022-08-09T13:12:39.690Z,0.60
2022-08-09T13:13:38.312Z,1.00
2022-08-09T13:14:46.313Z,0.80
2022-08-09T13:15:38.299Z,0.50
2022-08-09T13:16:37.607Z,0.60
2022-08-09T13:18:02.435Z,0.50
2022-08-09T13:18:39.221Z,0.60
2022-08-09T13:20:07.411Z,0.40
2022-08-09T13:21:04.372Z,0.70
2022-08-09T13:22:38.239Z,0.50
2022-08-09T13:23:01.048Z,0.60
2022-08-09T13:24:16.135Z,0.70
2022-08-09T13:24:53.728Z,0.70
2022-08-09T13:25:42.332Z,0.40
2022-08-09T13:26:40.488Z,0.70
2022-08-09T13:27:54.472Z,0.50
2022-08-09T13:28:42.225Z,0.80